Kezdőlap
METAR-TAF:

METAR-TAF

Repülőterek :

Sétif, Algéria

földrajzi szélesség: 36-11N, földrajzi hosszúság: 005-25E, magasság: 1038 m

Jelenlegi meteorológiai megfigyelések

A jelentés 45 perccel ezelõtt készült, 22:00 UTC
Kelet-északkeleti szél 2 kt
Hőmérséklet 27°C
Páratartalom 30%
Légköri nyomás 1020 hPa
Látótávolság: 8000 m
Kevés felhő 3000 lábon

METAR: DAAS 172200Z 06002KT 8000 FEW030 27/08 Q1020

Idő: 23:45 (22:45 UTC)

Előrejelzés

A jelentés 5 órával és 45 perccel ezelõtt készült, 17:00 UTC
Az előrejelzés 17-én 18 óra UTC és 18-én 18 óra UTC között érvényes
Déli szél 11 kt
Látótávolság: 6000 m
Kevés felhő 3000 lábon
17-én 18 óra UTC és 17-én 24 óra UTC között ideiglenes
Kevés felhő 2600 lábon, Cumulonimbus.
Valószínűség 30% :
17-én 18 óra UTC és 17-én 22 óra UTC között ideiglenes
Látótávolság: 4000 m
zivatar, jégesõ, esõ,

TAF: DAAS 171700Z 1718/1818 19011KT 6000 FEW030 TEMPO 1718/1724 FEW026CB PROB30 TEMPO 1718/1722 4000 TSGRRA

Meteorológiai megfigyelések és előrejelzések több, mint 4000 repülőtéren (METAR és TAF jelentéseket).

A térképen piros és sárga pontok jelzik az elérhető meteorológiai állomásokat.

Mozgassa az egeret a pont fölött, hogy megjelenjen az állomás neve.

Azután kattintson az időjárási megfigyelések és előrejelzések megtekintéséhez.

A térkép megváltoztatása: kattintson a fekete keresztel jelölt zöld gombra ráközelítéshez, a vonallal jelölt zöld gombra távolításhoz, vagy a zöld nyilakra a szomszédos térképek eléréséhez.


METAR-TAF: